Time;durP1;ratioP1;P1;durP2;ratioP2;P2;SDS_P1;SDS_P2;PMS_P1;PMS_P2;Temp;Humidity;BMP_temperature;BMP_pressure;BME280_temperature;BME280_humidity;BME280_pressure;Samples;Min_cycle;Max_cycle;Signal;HPM_P1;HPM_P2
2021/05/31 00:01:17;;;;;;;7.60;2.20;;;;;;;8.16;50.20;99476.94;4963217;28;20047;-60
2021/05/31 00:03:43;;;;;;;9.07;2.28;;;;;;;8.17;50.07;99494.94;4963137;28;20683;-60
2021/05/31 00:06:09;;;;;;;11.90;2.33;;;;;;;8.21;50.27;99487.84;4962323;28;20054;-60
2021/05/31 00:08:36;;;;;;;6.20;2.00;;;;;;;8.27;49.93;99486.78;4962591;28;20062;-60
2021/05/31 00:11:03;;;;;;;13.38;2.05;;;;;;;8.13;50.69;99486.47;4965181;28;20049;-60
2021/05/31 00:13:29;;;;;;;8.35;1.92;;;;;;;8.13;50.76;99481.00;4958741;28;20047;-61
2021/05/31 00:15:55;;;;;;;9.30;2.10;;;;;;;8.03;50.59;99487.25;4963354;28;20043;-60
2021/05/31 00:18:22;;;;;;;7.75;1.83;;;;;;;8.11;50.62;99477.75;4962721;28;20051;-59
2021/05/31 00:20:49;;;;;;;;;;;;;;;8.05;50.59;99495.97;4963726;28;20050;-61
2021/05/31 00:23:16;;;;;;;9.50;2.22;;;;;;;8.05;50.66;99484.25;4967712;28;19933;-62
2021/05/31 00:25:44;;;;;;;7.10;2.15;;;;;;;7.99;50.65;99494.31;4967333;28;20054;-61
2021/05/31 00:28:12;;;;;;;9.82;1.80;;;;;;;8.09;50.77;99479.91;4966992;28;22111;-61
2021/05/31 00:30:39;;;;;;;8.90;2.00;;;;;;;8.08;50.60;99478.28;4966958;28;20526;-60
2021/05/31 00:33:05;;;;;;;12.25;2.35;;;;;;;8.06;50.68;99483.19;4967297;28;20089;-60
2021/05/31 00:35:38;;;;;;;12.93;1.63;;;;;;;7.98;50.70;99483.66;4964798;28;20539;-60
2021/05/31 00:38:11;;;;;;;6.90;1.70;;;;;;;7.95;50.86;99474.94;4965737;28;20108;-60
2021/05/31 00:40:37;;;;;;;8.05;1.90;;;;;;;7.86;51.68;99473.00;4967562;28;20038;-61
2021/05/31 00:43:04;;;;;;;13.38;1.90;;;;;;;7.93;51.16;99468.97;4966605;28;20069;-61
2021/05/31 00:45:30;;;;;;;13.40;2.60;;;;;;;7.96;51.19;99467.63;4965385;28;20614;-60
2021/05/31 00:47:56;;;;;;;9.73;2.08;;;;;;;7.87;51.57;99471.91;4966399;28;20074;-60
2021/05/31 00:50:22;;;;;;;16.95;2.20;;;;;;;7.90;51.42;99472.22;4964626;28;20090;-61
2021/05/31 00:52:48;;;;;;;6.95;1.85;;;;;;;7.82;51.62;99469.97;4966032;28;20539;-61
2021/05/31 00:55:14;;;;;;;6.72;1.80;;;;;;;7.79;51.30;99473.25;4964910;28;20047;-60
2021/05/31 00:57:41;;;;;;;5.85;2.03;;;;;;;7.87;51.26;99472.72;4964999;28;20100;-61
2021/05/31 01:00:10;;;;;;;8.90;2.00;;;;;;;7.85;51.65;99474.91;4965359;28;20377;-62
2021/05/31 01:02:36;;;;;;;6.13;1.80;;;;;;;7.85;51.52;99464.00;4966434;28;20090;-61
2021/05/31 01:05:04;;;;;;;8.85;1.90;;;;;;;7.68;52.40;99468.81;4965717;28;20058;-62
2021/05/31 01:07:36;;;;;;;8.80;1.95;;;;;;;7.73;52.41;99472.38;4964796;28;20134;-60
2021/05/31 01:10:12;;;;;;;5.00;1.77;;;;;;;7.61;52.13;99467.16;4965242;28;20101;-62
2021/05/31 01:12:44;;;;;;;7.90;1.63;;;;;;;7.70;51.87;99480.25;4964913;28;20458;-61
2021/05/31 01:15:16;;;;;;;10.30;2.20;;;;;;;7.77;51.88;99478.13;4963732;28;20570;-61
2021/05/31 01:17:51;;;;;;;9.80;1.73;;;;;;;7.70;52.13;99489.25;4966219;28;20550;-61
2021/05/31 01:20:28;;;;;;;5.15;1.55;;;;;;;7.74;52.26;99490.34;4964661;28;20039;-60
2021/05/31 01:22:55;;;;;;;;;;;;;;;7.70;52.44;99488.41;4966594;28;20089;-61
2021/05/31 01:25:33;;;;;;;9.45;2.28;;;;;;;7.72;52.40;99494.41;4964968;28;20012;-60
2021/05/31 01:28:28;;;;;;;8.68;1.60;;;;;;;7.69;52.49;99489.50;4965075;28;20043;-61
2021/05/31 01:30:58;;;;;;;13.00;1.90;;;;;;;7.65;52.80;99481.88;4965615;28;20042;-60
2021/05/31 01:33:30;;;;;;;7.57;1.50;;;;;;;7.54;52.61;99485.59;4964105;28;20039;-60
2021/05/31 01:35:59;;;;;;;8.95;1.88;;;;;;;7.57;52.79;99484.28;4965373;28;20383;-60
2021/05/31 01:38:26;;;;;;;11.93;2.25;;;;;;;7.49;53.06;99499.19;4963584;28;20535;-60
2021/05/31 01:40:54;;;;;;;10.65;1.95;;;;;;;7.67;52.64;99503.38;4964022;28;20448;-61
2021/05/31 01:43:22;;;;;;;8.60;1.85;;;;;;;7.59;52.57;99499.25;4963776;28;20095;-62
2021/05/31 01:45:48;;;;;;;6.00;1.67;;;;;;;7.42;52.49;99485.00;4965185;28;20138;-60
2021/05/31 01:48:16;;;;;;;10.75;1.98;;;;;;;7.60;52.87;99505.50;4966328;28;20042;-61
2021/05/31 01:50:42;;;;;;;9.10;1.80;;;;;;;7.64;52.84;99512.88;4965867;28;20054;-60
2021/05/31 01:53:09;;;;;;;17.38;1.95;;;;;;;7.55;53.00;99508.19;4964533;28;20048;-61
2021/05/31 01:55:36;;;;;;;12.02;2.20;;;;;;;7.71;52.98;99523.53;4964603;28;20070;-60
2021/05/31 01:58:02;;;;;;;9.93;2.03;;;;;;;7.57;53.17;99519.63;4966173;28;20047;-61
2021/05/31 02:00:30;;;;;;;7.07;1.60;;;;;;;7.59;53.14;99522.91;4964701;28;20528;-59
2021/05/31 02:02:56;;;;;;;8.90;2.13;;;;;;;7.44;53.71;99519.00;4965191;28;20045;-62
2021/05/31 02:05:34;;;;;;;9.35;1.67;;;;;;;7.44;53.36;99520.91;4964010;28;20162;-61
2021/05/31 02:08:00;;;;;;;;;;;;;;;7.49;53.53;99521.78;4966551;28;20049;-62
2021/05/31 02:10:25;;;;;;;8.05;1.90;;;;;;;7.36;54.03;99530.38;4965173;28;19926;-61
2021/05/31 02:12:53;;;;;;;14.55;1.75;;;;;;;7.41;53.93;99526.84;4964733;28;20053;-60
2021/05/31 02:15:24;;;;;;;12.10;1.80;;;;;;;7.40;54.22;99530.66;4964700;28;20590;-62
2021/05/31 02:18:02;;;;;;;7.95;2.03;;;;;;;7.54;54.00;99534.56;4963947;28;20057;-62
2021/05/31 02:20:29;;;;;;;6.18;1.67;;;;;;;7.44;54.18;99537.25;4964615;28;20074;-63
2021/05/31 02:23:01;;;;;;;10.38;1.73;;;;;;;7.43;54.10;99532.88;4964904;28;20065;-61
2021/05/31 02:25:27;;;;;;;7.15;2.17;;;;;;;7.52;53.98;99536.75;4964523;28;20050;-61
2021/05/31 02:27:55;;;;;;;6.05;1.65;;;;;;;7.64;53.77;99536.53;4963422;28;20041;-60
2021/05/31 02:30:22;;;;;;;7.25;2.20;;;;;;;7.65;53.86;99538.22;4965317;28;20136;-62
2021/05/31 02:32:53;;;;;;;9.40;2.20;;;;;;;7.56;54.02;99542.50;4964312;28;20050;-61
2021/05/31 02:35:21;;;;;;;7.97;2.08;;;;;;;7.44;54.75;99539.97;4963754;28;20035;-62
2021/05/31 02:37:47;;;;;;;6.57;2.35;;;;;;;7.46;54.43;99529.63;4965811;28;20054;-62
2021/05/31 02:40:15;;;;;;;15.70;2.28;;;;;;;7.54;54.57;99534.56;4964272;28;20043;-63
2021/05/31 02:42:44;;;;;;;10.73;1.80;;;;;;;7.52;54.38;99531.31;4962357;28;20047;-61
2021/05/31 02:45:11;;;;;;;7.53;1.90;;;;;;;7.41;54.55;99530.41;4962929;28;20061;-61
2021/05/31 02:47:38;;;;;;;13.75;1.90;;;;;;;7.42;54.69;99540.22;4963018;28;20094;-62
2021/05/31 02:50:05;;;;;;;5.47;1.80;;;;;;;7.51;54.52;99537.81;4963916;28;20071;-62
2021/05/31 02:52:31;;;;;;;8.98;1.65;;;;;;;7.43;54.73;99533.69;4964077;28;20043;-61
2021/05/31 02:54:57;;;;;;;7.85;2.10;;;;;;;7.32;54.82;99538.22;4963567;28;20039;-61
2021/05/31 02:57:24;;;;;;;8.15;1.77;;;;;;;7.35;54.84;99529.53;4964371;28;20050;-61
2021/05/31 02:59:53;;;;;;;8.13;2.30;;;;;;;7.40;54.98;99536.09;4963874;28;20142;-61
2021/05/31 03:02:19;;;;;;;13.70;1.90;;;;;;;7.45;54.75;99539.69;4964158;28;20047;-61
2021/05/31 03:04:45;;;;;;;12.07;1.98;;;;;;;7.61;54.72;99534.34;4962882;28;20593;-61
2021/05/31 03:07:11;;;;;;;12.50;2.10;;;;;;;7.60;54.45;99527.28;4964518;28;20042;-62
2021/05/31 03:09:37;;;;;;;10.75;2.05;;;;;;;7.50;54.56;99534.31;4963463;28;20137;-63
2021/05/31 03:12:04;;;;;;;10.38;1.90;;;;;;;7.45;55.00;99534.25;4962866;28;20599;-60
2021/05/31 03:14:31;;;;;;;7.82;2.00;;;;;;;7.49;54.96;99537.28;4962313;28;20479;-61
2021/05/31 03:16:57;;;;;;;9.73;1.90;;;;;;;7.38;55.46;99536.38;4964449;28;20130;-60
2021/05/31 03:19:23;;;;;;;7.25;2.00;;;;;;;7.34;55.04;99533.34;4963459;28;20141;-62
2021/05/31 03:21:49;;;;;;;11.45;2.35;;;;;;;7.39;55.41;99546.19;4963129;28;20049;-60
2021/05/31 03:24:15;;;;;;;11.02;2.38;;;;;;;7.39;55.36;99538.00;4963551;28;20063;-61
2021/05/31 03:26:41;;;;;;;13.23;2.17;;;;;;;7.54;55.22;99539.22;4964332;28;20364;-59
2021/05/31 03:29:07;;;;;;;11.98;1.85;;;;;;;7.45;54.88;99547.84;4963988;28;20142;-60
2021/05/31 03:31:34;;;;;;;8.73;1.92;;;;;;;7.50;54.90;99545.19;4962693;28;20133;-60
2021/05/31 03:34:00;;;;;;;5.50;1.90;;;;;;;7.51;55.13;99552.25;4962739;28;20142;-60
2021/05/31 03:36:26;;;;;;;11.73;1.90;;;;;;;7.23;55.88;99548.75;4962697;28;20133;-62
2021/05/31 03:38:52;;;;;;;7.60;1.80;;;;;;;7.28;55.72;99553.44;4963867;28;20047;-60
2021/05/31 03:41:19;;;;;;;7.75;2.10;;;;;;;7.19;55.80;99542.22;4950109;28;20138;-61
2021/05/31 03:43:45;;;;;;;9.90;1.88;;;;;;;7.24;55.70;99553.13;4961914;28;20057;-61
2021/05/31 03:46:11;;;;;;;9.50;1.83;;;;;;;7.28;55.84;99547.16;4962079;28;20043;-61
2021/05/31 03:48:38;;;;;;;5.45;1.80;;;;;;;7.31;55.81;99552.06;4961756;28;20076;-60
2021/05/31 03:51:08;;;;;;;9.85;2.15;;;;;;;7.33;55.75;99550.75;4965159;28;20424;-61
2021/05/31 03:53:35;;;;;;;10.50;2.20;;;;;;;7.52;55.50;99545.75;4964968;28;20047;-62
2021/05/31 03:56:01;;;;;;;12.15;2.20;;;;;;;7.28;55.64;99542.56;4962953;28;20078;-61
2021/05/31 03:58:27;;;;;;;8.68;3.55;;;;;;;7.32;55.88;99546.38;4962748;28;20050;-61
2021/05/31 04:00:53;;;;;;;10.13;2.00;;;;;;;7.49;55.34;99543.53;4963340;28;20039;-61
2021/05/31 04:03:19;;;;;;;10.70;2.00;;;;;;;7.60;55.29;99543.59;4963544;28;20109;-61
2021/05/31 04:06:03;;;;;;;18.38;2.20;;;;;;;7.78;54.72;99537.72;4961179;28;21323;-61
2021/05/31 04:13:59;;;;;;;5.55;2.17;;;;;;;7.53;55.45;99541.09;4967241;28;20479;-60
2021/05/31 04:16:25;;;;;;;12.55;2.42;;;;;;;7.65;55.19;99543.66;4962676;28;20061;-60
2021/05/31 04:18:51;;;;;;;12.48;2.20;;;;;;;7.70;54.84;99548.28;4963111;28;20065;-61
2021/05/31 04:21:19;;;;;;;9.00;1.88;;;;;;;7.74;55.11;99550.22;4963558;28;20142;-62
2021/05/31 04:23:45;;;;;;;10.10;1.92;;;;;;;7.71;54.92;99555.38;4963153;28;20055;-62
2021/05/31 04:26:11;;;;;;;8.90;1.98;;;;;;;7.73;54.86;99553.22;4961809;28;20070;-62
2021/05/31 04:28:37;;;;;;;10.48;1.70;;;;;;;7.88;54.64;99557.94;4962860;28;20047;-60
2021/05/31 04:31:03;;;;;;;9.27;1.63;;;;;;;8.06;54.55;99548.53;4964317;28;20407;-60
2021/05/31 04:33:29;;;;;;;11.38;2.10;;;;;;;8.11;54.30;99545.00;4963789;28;20042;-64
2021/05/31 04:35:55;;;;;;;6.43;2.00;;;;;;;8.21;54.11;99553.22;4962492;28;20098;-61
2021/05/31 04:38:23;;;;;;;7.43;2.08;;;;;;;8.30;53.88;99554.38;4963036;28;20050;-63
2021/05/31 04:40:49;;;;;;;11.30;2.42;;;;;;;8.32;54.01;99552.19;4963050;28;20050;-62
2021/05/31 04:43:15;;;;;;;10.25;2.15;;;;;;;8.36;53.77;99550.56;4962397;28;20150;-62
2021/05/31 04:45:40;;;;;;;8.02;2.30;;;;;;;8.64;52.91;99547.69;4961480;28;20074;-61
2021/05/31 04:48:07;;;;;;;6.90;1.80;;;;;;;8.30;53.40;99556.25;4962616;28;20050;-62
2021/05/31 04:50:33;;;;;;;10.80;1.97;;;;;;;8.39;53.52;99549.22;4978124;28;20058;-61
2021/05/31 04:52:59;;;;;;;5.68;2.00;;;;;;;8.42;53.31;99547.84;4962541;28;20471;-60
2021/05/31 04:55:26;;;;;;;6.70;1.80;;;;;;;8.51;52.64;99533.50;4960691;28;20039;-63
2021/05/31 04:57:52;;;;;;;12.25;2.13;;;;;;;8.48;52.90;99536.69;4962106;28;20102;-62
2021/05/31 05:00:19;;;;;;;15.02;2.03;;;;;;;8.43;53.11;99544.88;4960534;28;20058;-61
2021/05/31 05:02:45;;;;;;;9.27;2.05;;;;;;;8.42;53.27;99547.84;4961889;28;21359;-61
2021/05/31 05:05:13;;;;;;;10.18;2.30;;;;;;;8.55;53.10;99532.97;4962623;28;20050;-60
2021/05/31 05:07:45;;;;;;;8.30;2.00;;;;;;;8.37;53.63;99543.22;4966092;28;20058;-60
2021/05/31 05:10:12;;;;;;;11.63;2.10;;;;;;;8.61;53.15;99545.50;4967157;28;20053;-63
2021/05/31 05:12:41;;;;;;;8.73;2.28;;;;;;;8.70;53.00;99549.34;4965143;28;20538;-61
2021/05/31 05:15:08;;;;;;;9.18;2.33;;;;;;;8.91;52.32;99546.66;4965306;28;20138;-60
2021/05/31 05:17:35;;;;;;;14.75;2.10;;;;;;;8.97;51.96;99551.03;4965987;28;20646;-64
2021/05/31 05:20:01;;;;;;;14.40;2.10;;;;;;;9.23;52.12;99556.53;4964882;28;20035;-62
2021/05/31 05:22:27;;;;;;;8.50;2.10;;;;;;;9.42;50.91;99564.16;4963851;28;20042;-62
2021/05/31 05:24:53;;;;;;;7.93;2.30;;;;;;;9.59;50.76;99542.88;4963335;28;20520;-62
2021/05/31 05:27:19;;;;;;;7.47;2.15;;;;;;;9.22;51.81;99550.25;4965380;28;20042;-63
2021/05/31 05:29:46;;;;;;;11.50;2.10;;;;;;;9.33;51.69;99545.63;4964045;28;20058;-61
2021/05/31 05:32:12;;;;;;;;;;;;;;;9.29;51.84;99546.44;4965849;28;20468;-62
2021/05/31 05:34:38;;;;;;;6.68;2.00;;;;;;;9.46;51.27;99552.44;4977199;28;19973;-62
2021/05/31 05:37:11;;;;;;;10.80;2.33;;;;;;;8.85;52.53;99534.94;4966229;28;20039;-62
2021/05/31 05:50:10;;;;;;;4.90;1.80;;;;;;;9.60;50.59;99544.53;4965705;28;20081;-63
2021/05/31 05:52:36;;;;;;;8.75;2.33;;;;;;;9.78;50.26;99564.16;4965566;28;20063;-60
2021/05/31 05:55:06;;;;;;;12.93;2.17;;;;;;;9.89;49.93;99560.31;4967778;28;20555;-63
2021/05/31 05:57:32;;;;;;;11.05;2.33;;;;;;;9.98;50.06;99560.56;4964036;28;20142;-63
2021/05/31 06:00:03;;;;;;;14.70;2.25;;;;;;;9.98;50.54;99563.28;4965684;28;20053;-62
2021/05/31 06:02:39;;;;;;;11.82;2.58;;;;;;;9.95;50.35;99555.66;4965204;28;20054;-61
2021/05/31 06:05:06;;;;;;;7.07;2.13;;;;;;;9.97;50.17;99564.38;4963857;28;20051;-62
2021/05/31 06:07:33;;;;;;;8.48;2.00;;;;;;;10.07;50.14;99564.38;4964306;28;20053;-62
2021/05/31 06:10:00;;;;;;;12.50;2.30;;;;;;;10.31;49.43;99571.97;4964046;28;20049;-62
2021/05/31 06:12:27;;;;;;;;;;;;;;;10.47;49.06;99563.72;4968106;28;20054;-64
2021/05/31 06:14:53;;;;;;;11.50;2.63;;;;;;;10.48;49.01;99577.09;4973985;28;19925;-63
2021/05/31 06:17:20;;;;;;;8.20;2.00;;;;;;;10.53;49.22;99568.06;4963473;28;20102;-64
2021/05/31 06:19:46;;;;;;;;;;;;;;;10.62;48.97;99574.59;4968220;28;20047;-64
2021/05/31 06:22:12;;;;;;;8.65;2.17;;;;;;;10.42;49.22;99564.56;4963285;28;19932;-61
2021/05/31 06:24:39;;;;;;;12.48;2.67;;;;;;;10.65;48.88;99567.72;4963113;28;20098;-62
2021/05/31 06:27:06;;;;;;;7.27;2.27;;;;;;;10.42;49.10;99567.31;4962224;28;20058;-63
2021/05/31 06:29:32;;;;;;;12.75;2.38;;;;;;;10.70;48.57;99562.25;4967062;28;20578;-64
2021/05/31 06:31:58;;;;;;;8.90;2.50;;;;;;;10.82;48.37;99559.19;4978005;28;20043;-63
2021/05/31 06:34:25;;;;;;;9.85;2.22;;;;;;;10.96;48.14;99561.28;4962869;28;20043;-63
2021/05/31 06:36:55;;;;;;;11.07;2.40;;;;;;;11.04;48.07;99558.78;4963795;28;20047;-63
2021/05/31 06:39:22;;;;;;;13.60;2.67;;;;;;;10.84;48.73;99572.56;4962342;28;20055;-64
2021/05/31 06:41:49;;;;;;;16.73;2.65;;;;;;;11.23;48.32;99562.72;4966285;28;20047;-62
2021/05/31 06:44:15;;;;;;;10.98;2.47;;;;;;;11.02;48.37;99562.88;4963551;28;20141;-63
2021/05/31 06:46:41;;;;;;;19.27;3.10;;;;;;;11.07;48.75;99557.38;4963700;28;20047;-66
2021/05/31 06:49:07;;;;;;;12.00;2.80;;;;;;;11.00;48.18;99556.88;4964906;28;20047;-64
2021/05/31 06:51:35;;;;;;;15.35;2.83;;;;;;;10.85;48.38;99572.28;4962860;28;20043;-65
2021/05/31 06:54:01;;;;;;;12.77;2.70;;;;;;;10.92;48.28;99561.03;4964429;28;20068;-64
2021/05/31 06:56:27;;;;;;;14.07;3.47;;;;;;;10.99;48.03;99563.44;4966298;28;20042;-64
2021/05/31 06:58:53;;;;;;;17.30;3.15;;;;;;;10.94;48.43;99566.22;4963648;28;20113;-64
2021/05/31 07:01:19;;;;;;;13.95;2.83;;;;;;;10.97;48.45;99561.00;4965498;28;20155;-65
2021/05/31 07:03:46;;;;;;;13.80;2.97;;;;;;;11.01;48.46;99563.97;4964653;28;20125;-65
2021/05/31 07:06:12;;;;;;;14.55;2.83;;;;;;;10.81;48.70;99573.13;4963098;28;20039;-65
2021/05/31 07:08:39;;;;;;;12.82;3.05;;;;;;;10.73;48.66;99575.38;4962720;28;20050;-64
2021/05/31 07:11:11;;;;;;;10.63;2.58;;;;;;;10.64;49.10;99577.03;4963464;28;20050;-63
2021/05/31 07:13:38;;;;;;;14.07;3.00;;;;;;;10.62;49.06;99573.75;4963581;28;20039;-64
2021/05/31 07:16:05;;;;;;;17.20;3.25;;;;;;;10.80;48.81;99546.88;4964256;28;20733;-62
2021/05/31 07:18:32;;;;;;;16.02;3.38;;;;;;;11.09;48.28;99557.94;4976156;28;20054;-65
2021/05/31 07:21:01;;;;;;;11.48;3.95;;;;;;;11.32;47.87;99563.78;4978266;28;20054;-65
2021/05/31 07:23:28;;;;;;;11.93;3.67;;;;;;;11.13;47.67;99560.88;4964652;28;20137;-63
2021/05/31 07:25:55;;;;;;;13.07;3.45;;;;;;;11.02;47.83;99554.66;4963706;28;20051;-63
2021/05/31 07:28:21;;;;;;;16.42;3.55;;;;;;;11.18;47.81;99558.94;4964285;28;20297;-62
2021/05/31 07:30:47;;;;;;;20.75;3.75;;;;;;;11.06;48.43;99559.31;4960636;28;20511;-63
2021/05/31 07:33:14;;;;;;;15.23;3.63;;;;;;;10.91;48.63;99562.94;4962737;28;20117;-62
2021/05/31 07:35:41;;;;;;;21.58;3.90;;;;;;;11.02;48.13;99560.97;4964520;28;20047;-63
2021/05/31 07:38:07;;;;;;;12.20;3.40;;;;;;;10.84;48.27;99559.72;4965777;28;20060;-65
2021/05/31 07:40:34;;;;;;;17.58;3.25;;;;;;;11.07;47.92;99554.63;4963551;28;20574;-63
2021/05/31 07:43:01;;;;;;;11.20;3.30;;;;;;;11.33;47.37;99566.22;4963383;28;20660;-63
2021/05/31 07:45:27;;;;;;;12.13;3.45;;;;;;;11.34;47.29;99567.03;4982162;28;20133;-62
2021/05/31 07:47:53;;;;;;;23.13;3.00;;;;;;;11.37;47.45;99571.13;4963732;28;20492;-63
2021/05/31 07:50:19;;;;;;;17.77;3.10;;;;;;;11.60;47.00;99564.91;4963783;28;20061;-63
2021/05/31 07:52:46;;;;;;;15.07;3.25;;;;;;;11.68;46.57;99548.97;4963930;28;20121;-63
2021/05/31 07:55:14;;;;;;;13.18;3.25;;;;;;;11.66;47.00;99567.59;4958415;28;20051;-62
2021/05/31 07:57:41;;;;;;;18.48;3.03;;;;;;;11.49;46.38;99545.00;4960982;28;20054;-64
2021/05/31 08:00:12;;;;;;;14.93;2.90;;;;;;;11.75;46.39;99561.22;4961667;28;20054;-63
2021/05/31 08:02:44;;;;;;;13.80;2.75;;;;;;;11.94;45.21;99565.97;4951607;28;20074;-64
2021/05/31 08:05:10;;;;;;;;;;;;;;;12.28;43.93;99567.00;4949691;28;20043;-66
2021/05/31 08:07:37;;;;;;;17.58;3.08;;;;;;;12.54;43.55;99552.97;4965417;28;19926;-63
2021/05/31 08:10:04;;;;;;;11.68;2.08;;;;;;;12.41;43.45;99560.81;4962178;28;20124;-66
2021/05/31 08:12:31;;;;;;;13.48;2.60;;;;;;;12.25;43.54;99543.72;4962554;28;20511;-67
2021/05/31 08:14:58;;;;;;;10.70;2.38;;;;;;;12.07;43.62;99560.94;4963509;28;20038;-66
2021/05/31 08:17:26;;;;;;;17.80;2.80;;;;;;;12.24;43.54;99555.81;4959415;28;20476;-66
2021/05/31 08:19:51;;;;;;;;;;;;;;;12.37;42.93;99554.28;4962401;28;20078;-63
2021/05/31 08:22:18;;;;;;;13.63;2.42;;;;;;;12.17;42.65;99560.81;4963285;28;20033;-63
2021/05/31 08:24:43;;;;;;;9.95;2.47;;;;;;;11.87;43.08;99554.53;4962473;28;20043;-64
2021/05/31 08:27:09;;;;;;;9.15;2.55;;;;;;;11.94;43.40;99559.66;4962639;28;20047;-65
2021/05/31 08:29:35;;;;;;;10.10;2.17;;;;;;;11.95;42.81;99553.88;4963297;28;20129;-66
2021/05/31 08:32:02;;;;;;;10.73;2.42;;;;;;;11.95;42.20;99562.13;4963651;28;20081;-66
2021/05/31 08:34:30;;;;;;;5.95;2.40;;;;;;;12.01;42.15;99560.13;4966227;28;20050;-67
2021/05/31 08:36:56;;;;;;;9.68;2.15;;;;;;;11.96;41.76;99560.19;4962162;28;20496;-67
2021/05/31 08:39:23;;;;;;;8.98;2.33;;;;;;;11.90;41.64;99545.72;4961240;28;20055;-66
2021/05/31 08:41:51;;;;;;;9.85;1.92;;;;;;;11.74;41.50;99554.09;4961685;28;20051;-64
2021/05/31 08:44:30;;;;;;;7.28;1.63;;;;;;;11.66;41.53;99551.19;4964162;28;20237;-65
2021/05/31 08:47:02;;;;;;;9.60;1.75;;;;;;;11.50;41.42;99556.78;4970207;28;20526;-64
2021/05/31 08:49:30;;;;;;;7.60;1.73;;;;;;;11.48;41.86;99546.13;4969070;28;20157;-66
2021/05/31 08:51:57;;;;;;;7.68;1.90;;;;;;;11.67;41.13;99553.59;4965046;28;20047;-65
2021/05/31 08:54:24;;;;;;;10.55;1.80;;;;;;;11.61;41.85;99552.84;4966579;28;20047;-67
2021/05/31 08:56:50;;;;;;;12.75;1.80;;;;;;;11.89;41.98;99555.06;4970708;28;20075;-66
2021/05/31 08:59:16;;;;;;;11.80;2.35;;;;;;;11.72;42.28;99555.50;4970594;28;20065;-66
2021/05/31 09:01:42;;;;;;;12.10;2.55;;;;;;;11.53;42.56;99547.16;4953222;28;20053;-65
2021/05/31 09:04:13;;;;;;;10.73;2.47;;;;;;;11.26;43.30;99551.25;4979873;28;20057;-65
2021/05/31 09:06:41;;;;;;;5.75;1.67;;;;;;;11.28;43.67;99549.03;4963260;28;20424;-65
2021/05/31 09:09:07;;;;;;;;;;;;;;;11.31;43.57;99549.25;4969071;28;20098;-65
2021/05/31 09:11:34;;;;;;;8.68;1.90;;;;;;;11.23;43.81;99549.03;4966136;28;19926;-67
2021/05/31 09:14:00;;;;;;;5.55;1.80;;;;;;;11.11;43.59;99543.94;4966872;28;20051;-63
2021/05/31 09:16:29;;;;;;;7.78;1.90;;;;;;;11.05;43.99;99541.25;4963969;28;20129;-72
2021/05/31 09:18:57;;;;;;;13.63;2.40;;;;;;;11.07;44.16;99535.47;4966762;28;20078;-64
2021/05/31 09:21:27;;;;;;;15.05;2.40;;;;;;;11.37;43.97;99544.56;4968629;28;20051;-64
2021/05/31 09:23:57;;;;;;;7.65;2.40;;;;;;;11.30;44.37;99544.88;4962411;28;20053;-64
2021/05/31 09:26:24;;;;;;;11.27;2.83;;;;;;;11.23;44.61;99544.41;4964093;28;20141;-65
2021/05/31 09:28:55;;;;;;;12.30;3.03;;;;;;;11.12;44.79;99537.38;4946117;28;20083;-65
2021/05/31 09:31:22;;;;;;;13.10;3.00;;;;;;;11.14;44.83;99536.00;4962632;28;20054;-65
2021/05/31 09:33:59;;;;;;;7.82;2.17;;;;;;;11.20;44.48;99547.72;4963179;28;20102;-64
2021/05/31 09:36:25;;;;;;;8.13;2.67;;;;;;;11.54;44.12;99544.16;4964300;28;20055;-65
2021/05/31 09:38:51;;;;;;;15.07;2.85;;;;;;;11.19;44.55;99533.22;4950468;28;20558;-68
2021/05/31 09:41:24;;;;;;;10.88;2.00;;;;;;;11.48;44.07;99535.16;4964453;28;20058;-66
2021/05/31 09:43:52;;;;;;;8.75;2.20;;;;;;;11.71;43.61;99532.78;4964430;28;20053;-68
2021/05/31 09:46:17;;;;;;;;;;;;;;;11.68;43.81;99538.81;4965604;28;20047;-67
2021/05/31 09:48:44;;;;;;;11.23;2.13;;;;;;;11.61;43.55;99536.41;4970050;28;20033;-66
2021/05/31 09:51:13;;;;;;;8.65;2.28;;;;;;;11.75;43.52;99530.25;4966800;28;20537;-65
2021/05/31 09:53:40;;;;;;;8.55;2.40;;;;;;;12.04;43.44;99540.41;4968152;28;20050;-65
2021/05/31 09:56:13;;;;;;;9.93;2.53;;;;;;;12.10;42.85;99532.94;4965424;28;20142;-65
2021/05/31 09:58:52;;;;;;;12.88;2.70;;;;;;;12.04;44.04;99538.50;4967074;28;20061;-67
2021/05/31 10:01:35;;;;;;;12.40;2.67;;;;;;;12.08;43.81;99535.97;4965075;28;20142;-66
2021/05/31 10:04:24;;;;;;;11.05;3.03;;;;;;;11.58;44.54;99533.44;4966404;28;20058;-64
2021/05/31 10:06:55;;;;;;;11.32;2.50;;;;;;;11.53;44.70;99537.03;4966014;28;20070;-63
2021/05/31 10:09:22;;;;;;;11.68;2.65;;;;;;;11.31;44.74;99529.28;4965179;28;20409;-65
2021/05/31 10:11:50;;;;;;;9.45;2.25;;;;;;;11.64;44.12;99526.81;4964866;28;20051;-63
2021/05/31 10:14:18;;;;;;;;;;;;;;;11.72;43.67;99530.84;4965715;28;20134;-64
2021/05/31 10:16:47;;;;;;;9.38;2.30;;;;;;;11.57;44.50;99537.28;4979386;28;19933;-64
2021/05/31 10:19:13;;;;;;;8.18;2.13;;;;;;;11.91;43.70;99528.19;4964823;28;20066;-64
2021/05/31 10:21:39;;;;;;;9.45;2.20;;;;;;;12.18;43.06;99530.38;4963968;28;20105;-63
2021/05/31 10:24:06;;;;;;;6.85;1.98;;;;;;;12.54;42.68;99534.59;4965291;28;20158;-64
2021/05/31 10:26:36;;;;;;;12.25;2.17;;;;;;;12.54;42.40;99528.28;4963629;28;20050;-65
2021/05/31 10:29:04;;;;;;;17.08;2.47;;;;;;;12.87;42.09;99525.63;4967474;28;20046;-62
2021/05/31 10:31:42;;;;;;;13.88;2.40;;;;;;;13.07;41.41;99523.72;4963684;28;20195;-64
2021/05/31 10:34:17;;;;;;;11.45;2.40;;;;;;;13.26;41.22;99523.66;4963907;28;20058;-66
2021/05/31 10:36:45;;;;;;;11.90;2.90;;;;;;;13.25;40.86;99531.09;4963645;28;20058;-64
2021/05/31 10:39:21;;;;;;;8.68;2.08;;;;;;;13.34;40.49;99523.00;4963445;28;20051;-65
2021/05/31 10:41:49;;;;;;;7.25;2.40;;;;;;;13.24;40.27;99525.91;4961187;28;20047;-66
2021/05/31 10:44:16;;;;;;;6.70;1.63;;;;;;;13.15;39.70;99523.84;4963715;28;20432;-65
2021/05/31 10:46:44;;;;;;;8.00;2.13;;;;;;;13.18;39.95;99517.75;4961690;28;20461;-64
2021/05/31 10:49:16;;;;;;;12.82;2.00;;;;;;;13.44;39.73;99520.13;4962890;28;20503;-65
2021/05/31 10:51:42;;;;;;;6.85;2.10;;;;;;;13.16;39.47;99524.66;4962370;28;20183;-64
2021/05/31 10:54:10;;;;;;;8.43;1.98;;;;;;;13.17;39.81;99524.38;4962757;28;20043;-65
2021/05/31 10:56:37;;;;;;;8.73;2.30;;;;;;;12.92;40.63;99522.84;4963250;28;20039;-64
2021/05/31 10:59:04;;;;;;;17.90;2.50;;;;;;;12.92;40.84;99525.56;4960979;28;20051;-64
2021/05/31 11:01:38;;;;;;;7.28;2.10;;;;;;;13.06;39.95;99533.88;4961836;28;20055;-64
2021/05/31 11:04:10;;;;;;;10.30;1.98;;;;;;;12.69;39.28;99538.25;4962188;28;20055;-63
2021/05/31 11:07:34;;;;;;;10.75;1.67;;;;;;;13.01;38.50;99540.25;4963259;28;20078;-65
2021/05/31 11:10:17;;;;;;;8.82;1.90;;;;;;;12.91;38.15;99538.47;4934836;28;20559;-65
2021/05/31 11:12:45;;;;;;;6.38;1.83;;;;;;;12.81;38.96;99540.56;4963019;28;20059;-63
2021/05/31 11:15:12;;;;;;;;;;;;;;;12.37;39.48;99540.56;4963249;28;20097;-64
2021/05/31 11:17:50;;;;;;;8.38;1.98;;;;;;;12.43;39.16;99535.84;4951991;28;19930;-64
2021/05/31 11:20:20;;;;;;;9.18;1.92;;;;;;;12.64;38.89;99544.63;4963415;28;20039;-64
2021/05/31 11:22:53;;;;;;;5.70;1.80;;;;;;;13.09;38.75;99533.25;4963189;28;20145;-64
2021/05/31 11:25:21;;;;;;;6.65;1.85;;;;;;;13.32;38.34;99530.72;4961860;28;20043;-64
2021/05/31 11:27:52;;;;;;;6.20;1.90;;;;;;;13.36;38.04;99523.50;4962341;28;20047;-63
2021/05/31 11:30:22;;;;;;;8.88;1.80;;;;;;;13.05;37.51;99515.78;4962626;28;20591;-62
2021/05/31 11:32:49;;;;;;;8.30;2.58;;;;;;;13.11;37.39;99522.00;4962184;28;20054;-63
2021/05/31 11:35:17;;;;;;;8.93;1.90;;;;;;;13.33;37.67;99524.13;4962768;28;20075;-63
2021/05/31 11:37:45;;;;;;;10.13;1.98;;;;;;;13.56;37.89;99516.88;4963842;28;20381;-65
2021/05/31 11:40:17;;;;;;;11.73;2.05;;;;;;;13.43;38.67;99518.50;4963204;28;20070;-65
2021/05/31 11:42:45;;;;;;;6.63;1.95;;;;;;;13.66;39.17;99515.06;4960458;28;20595;-64
2021/05/31 11:45:11;;;;;;;;;;;;;;;13.84;38.86;99522.44;4967767;28;20043;-65
2021/05/31 11:47:37;;;;;;;6.53;1.80;;;;;;;13.87;38.65;99516.31;4960935;28;19989;-64
2021/05/31 11:50:04;;;;;;;6.45;1.73;;;;;;;13.69;39.18;99518.03;4962062;28;20507;-67
2021/05/31 11:52:30;;;;;;;5.47;2.00;;;;;;;13.49;39.80;99519.19;4961834;28;20090;-66
2021/05/31 11:54:58;;;;;;;7.15;2.00;;;;;;;13.87;39.39;99518.25;4962081;28;20046;-69
2021/05/31 11:57:25;;;;;;;;;;;;;;;14.13;38.65;99517.75;4961741;28;20069;-66